Capt Amer — 3FCQ3 — position and weather

sailwx.info

Track history (hours):
 
Tides and Currents Weather Stations Pressure Air Temp Water Temp Dewpoint Dewpoint Depression Visibility Wind Speed Wind Dir Waves Ship Positions

Capt Amer

Last reported at 2017-Feb-27 01:26 UTC. Time now 2017-Feb-27 01:57 UTC.
Position N 46°30' E 030°44'.

Length 113 m; draft 5.1 m.

Type: Cargo ship. MMSI: 373175000.

Date/timePositionNaut miles runAvg speedWind from/ knotsBaromVisibWave heightAir tempDewpointWater temp
2017-Feb-27 01:26N 46°30' E 030°44'0 0.0
2017-Feb-27 00:32N 46°30' E 030°44'0 0.0
2017-Feb-26 23:26N 46°30' E 030°44'0 0.0
2017-Feb-26 22:29N 46°30' E 030°44'0 0.0
2017-Feb-26 21:20N 46°30' E 030°44'0 0.0
2017-Feb-26 20:32N 46°30' E 030°44'0 0.0
2017-Feb-26 19:29N 46°30' E 030°45'0 0.0
2017-Feb-26 18:29N 46°30' E 030°45'0 0.0
2017-Feb-26 17:29N 46°30' E 030°45'0 0.0
2017-Feb-26 16:29N 46°30' E 030°45'0 0.0
2017-Feb-26 15:32N 46°30' E 030°44'0 0.0
2017-Feb-26 14:32N 46°30' E 030°45'0 0.0
2017-Feb-26 13:32N 46°30' E 030°45'0 0.0
2017-Feb-26 12:29N 46°30' E 030°45'0 0.0
2017-Feb-26 11:32N 46°30' E 030°44'0 0.0
2017-Feb-26 10:23N 46°30' E 030°45'0 0.0
2017-Feb-26 09:32N 46°30' E 030°45'0 0.0
2017-Feb-26 08:32N 46°30' E 030°44'0 0.0
2017-Feb-26 07:29N 46°30' E 030°44'0 0.0
2017-Feb-26 06:32N 46°30' E 030°45'0 0.0
2017-Feb-26 05:32N 46°30' E 030°44'0 0.0
2017-Feb-26 04:29N 46°30' E 030°44'0 0.0
2017-Feb-26 03:29N 46°30' E 030°45'0 0.0
2017-Feb-26 02:20N 46°30' E 030°44'0 0.0
2017-Feb-26 01:32N 46°30' E 030°44'0 0.0
2017-Feb-26 00:23N 46°30' E 030°44'0 0.0
2017-Feb-25 23:32N 46°30' E 030°44'0 0.0
2017-Feb-25 22:32N 46°30' E 030°45'0 0.0
2017-Feb-25 21:32N 46°30' E 030°45'0 0.0
2017-Feb-25 20:20N 46°30' E 030°45'0 0.0
2017-Feb-25 19:23N 46°30' E 030°44'0 0.0
2017-Feb-25 18:26N 46°30' E 030°45'0 0.0
2017-Feb-25 17:29N 46°30' E 030°44'0 0.0
2017-Feb-25 16:20N 46°30' E 030°44'0 0.0
2017-Feb-25 15:32N 46°30' E 030°44'0 0.0
2017-Feb-25 14:26N 46°30' E 030°44'0 0.0
2017-Feb-25 13:23N 46°30' E 030°45'0 0.0
2017-Feb-25 12:32N 46°30' E 030°45'0 0.0
2017-Feb-25 11:33N 46°30' E 030°45'2 2.3
2017-Feb-25 10:33N 46°30' E 030°48'3 0.3
2017-Feb-25 02:20N 46°30' E 030°52'0 0.0
2017-Feb-24 17:29N 46°30' E 030°52'0 0.0
2017-Feb-24 16:29N 46°30' E 030°52'0 0.0
2017-Feb-24 15:20N 46°30' E 030°52'0 0.0
2017-Feb-24 14:22N 46°30' E 030°52'0 0.0
2017-Feb-24 13:29N 46°30' E 030°52'0 0.0
2017-Feb-24 11:32N 46°30' E 030°52'0 0.0
2017-Feb-24 04:29N 46°30' E 030°52'0 0.0
2017-Feb-24 03:11N 46°30' E 030°52'0 0.0
2017-Feb-24 02:32N 46°30' E 030°52'0 0.0
2017-Feb-23 20:14N 46°30' E 030°52'0 0.0
2017-Feb-23 18:14N 46°30' E 030°52'0 0.0
2017-Feb-23 15:29N 46°30' E 030°52'0 0.1
2017-Feb-23 14:32N 46°30' E 030°52'0 0.0
2017-Feb-23 13:25N 46°30' E 030°52'0 0.0
2017-Feb-23 11:31N 46°30' E 030°52'8 7.3
2017-Feb-23 10:27N 46°22' E 030°53'  
Track history (hours):
 
Tides and Currents Weather Stations Pressure Air Temp Water Temp Dewpoint Dewpoint Depression Visibility Wind Speed Wind Dir Waves Ship Positions

Capt Amer

Last reported at 2017-Feb-27 01:26 UTC. Time now 2017-Feb-27 01:57 UTC.
Position N 46°30' E 030°44'.

Length 113 m; draft 5.1 m.

Type: Cargo ship. MMSI: 373175000.

Date/timePositionNaut miles runAvg speedWind from/ knotsBaromVisibWave heightAir tempDewpointWater temp
2017-Feb-27 01:26N 46°30' E 030°44'0 0.0
2017-Feb-27 00:32N 46°30' E 030°44'0 0.0
2017-Feb-26 23:26N 46°30' E 030°44'0 0.0
2017-Feb-26 22:29N 46°30' E 030°44'0 0.0
2017-Feb-26 21:20N 46°30' E 030°44'0 0.0
2017-Feb-26 20:32N 46°30' E 030°44'0 0.0
2017-Feb-26 19:29N 46°30' E 030°45'0 0.0
2017-Feb-26 18:29N 46°30' E 030°45'0 0.0
2017-Feb-26 17:29N 46°30' E 030°45'0 0.0
2017-Feb-26 16:29N 46°30' E 030°45'0 0.0
2017-Feb-26 15:32N 46°30' E 030°44'0 0.0
2017-Feb-26 14:32N 46°30' E 030°45'0 0.0
2017-Feb-26 13:32N 46°30' E 030°45'0 0.0
2017-Feb-26 12:29N 46°30' E 030°45'0 0.0
2017-Feb-26 11:32N 46°30' E 030°44'0 0.0
2017-Feb-26 10:23N 46°30' E 030°45'0 0.0
2017-Feb-26 09:32N 46°30' E 030°45'0 0.0
2017-Feb-26 08:32N 46°30' E 030°44'0 0.0
2017-Feb-26 07:29N 46°30' E 030°44'0 0.0
2017-Feb-26 06:32N 46°30' E 030°45'0 0.0
2017-Feb-26 05:32N 46°30' E 030°44'0 0.0
2017-Feb-26 04:29N 46°30' E 030°44'0 0.0
2017-Feb-26 03:29N 46°30' E 030°45'0 0.0
2017-Feb-26 02:20N 46°30' E 030°44'0 0.0
2017-Feb-26 01:32N 46°30' E 030°44'0 0.0
2017-Feb-26 00:23N 46°30' E 030°44'0 0.0
2017-Feb-25 23:32N 46°30' E 030°44'0 0.0
2017-Feb-25 22:32N 46°30' E 030°45'0 0.0
2017-Feb-25 21:32N 46°30' E 030°45'0 0.0
2017-Feb-25 20:20N 46°30' E 030°45'0 0.0
2017-Feb-25 19:23N 46°30' E 030°44'0 0.0
2017-Feb-25 18:26N 46°30' E 030°45'0 0.0
2017-Feb-25 17:29N 46°30' E 030°44'0 0.0
2017-Feb-25 16:20N 46°30' E 030°44'0 0.0
2017-Feb-25 15:32N 46°30' E 030°44'0 0.0
2017-Feb-25 14:26N 46°30' E 030°44'0 0.0
2017-Feb-25 13:23N 46°30' E 030°45'0 0.0
2017-Feb-25 12:32N 46°30' E 030°45'0 0.0
2017-Feb-25 11:33N 46°30' E 030°45'2 2.3
2017-Feb-25 10:33N 46°30' E 030°48'3 0.3
2017-Feb-25 02:20N 46°30' E 030°52'0 0.0
2017-Feb-24 17:29N 46°30' E 030°52'0 0.0
2017-Feb-24 16:29N 46°30' E 030°52'0 0.0
2017-Feb-24 15:20N 46°30' E 030°52'0 0.0
2017-Feb-24 14:22N 46°30' E 030°52'0 0.0
2017-Feb-24 13:29N 46°30' E 030°52'0 0.0
2017-Feb-24 11:32N 46°30' E 030°52'0 0.0
2017-Feb-24 04:29N 46°30' E 030°52'0 0.0
2017-Feb-24 03:11N 46°30' E 030°52'0 0.0
2017-Feb-24 02:32N 46°30' E 030°52'0 0.0
2017-Feb-23 20:14N 46°30' E 030°52'0 0.0
2017-Feb-23 18:14N 46°30' E 030°52'0 0.0
2017-Feb-23 15:29N 46°30' E 030°52'0 0.1
2017-Feb-23 14:32N 46°30' E 030°52'0 0.0
2017-Feb-23 13:25N 46°30' E 030°52'0 0.0
2017-Feb-23 11:31N 46°30' E 030°52'8 7.3
2017-Feb-23 10:27N 46°22' E 030°53'  

Dump ship's entire track history